sensor_id;sensor_type;location;lat;lon;timestamp;temperature;humidity
52943;DHT22;38809;53.300;6.614;2023-04-19T00:02:01;7.00;99.90
52943;DHT22;38809;53.300;6.614;2023-04-19T00:04:27;6.90;99.90
52943;DHT22;38809;53.300;6.614;2023-04-19T00:06:54;7.10;99.90
52943;DHT22;38809;53.300;6.614;2023-04-19T00:09:19;6.80;99.90
52943;DHT22;38809;53.300;6.614;2023-04-19T00:11:45;7.10;99.90
52943;DHT22;38809;53.300;6.614;2023-04-19T00:14:10;6.90;99.90
52943;DHT22;38809;53.300;6.614;2023-04-19T00:16:36;6.80;99.90
52943;DHT22;38809;53.300;6.614;2023-04-19T00:19:02;6.60;99.90
52943;DHT22;38809;53.300;6.614;2023-04-19T00:21:28;6.40;99.90
52943;DHT22;38809;53.300;6.614;2023-04-19T00:23:53;6.60;99.90
52943;DHT22;38809;53.300;6.614;2023-04-19T00:26:19;6.10;99.90
52943;DHT22;38809;53.300;6.614;2023-04-19T00:28:44;6.20;99.90
52943;DHT22;38809;53.300;6.614;2023-04-19T00:31:10;6.60;99.90
52943;DHT22;38809;53.300;6.614;2023-04-19T00:33:35;6.60;99.90
52943;DHT22;38809;53.300;6.614;2023-04-19T00:36:01;6.60;99.90
52943;DHT22;38809;53.300;6.614;2023-04-19T00:38:27;6.50;99.90
52943;DHT22;38809;53.300;6.614;2023-04-19T00:40:52;7.00;99.90
52943;DHT22;38809;53.300;6.614;2023-04-19T00:43:18;6.90;99.90
52943;DHT22;38809;53.300;6.614;2023-04-19T00:45:44;7.10;99.90
52943;DHT22;38809;53.300;6.614;2023-04-19T00:48:11;7.00;99.90
52943;DHT22;38809;53.300;6.614;2023-04-19T00:50:36;6.90;99.90
52943;DHT22;38809;53.300;6.614;2023-04-19T00:53:02;6.70;99.90
52943;DHT22;38809;53.300;6.614;2023-04-19T00:55:28;6.70;99.90
52943;DHT22;38809;53.300;6.614;2023-04-19T00:57:53;6.60;99.90
52943;DHT22;38809;53.300;6.614;2023-04-19T01:00:19;6.60;99.90
52943;DHT22;38809;53.300;6.614;2023-04-19T01:02:44;6.90;99.90
52943;DHT22;38809;53.300;6.614;2023-04-19T01:05:11;6.70;99.90
52943;DHT22;38809;53.300;6.614;2023-04-19T01:07:36;6.50;99.90
52943;DHT22;38809;53.300;6.614;2023-04-19T01:10:02;6.60;99.90
52943;DHT22;38809;53.300;6.614;2023-04-19T01:12:28;6.50;99.90
52943;DHT22;38809;53.300;6.614;2023-04-19T01:14:53;6.90;99.90
52943;DHT22;38809;53.300;6.614;2023-04-19T01:17:19;7.10;99.90
52943;DHT22;38809;53.300;6.614;2023-04-19T01:19:44;6.80;99.90
52943;DHT22;38809;53.300;6.614;2023-04-19T01:22:15;6.60;99.90
52943;DHT22;38809;53.300;6.614;2023-04-19T01:24:41;6.60;99.90
52943;DHT22;38809;53.300;6.614;2023-04-19T01:27:06;6.60;99.90
52943;DHT22;38809;53.300;6.614;2023-04-19T01:29:32;6.70;99.90
52943;DHT22;38809;53.300;6.614;2023-04-19T01:31:57;6.70;99.90
52943;DHT22;38809;53.300;6.614;2023-04-19T01:34:23;6.60;99.90
52943;DHT22;38809;53.300;6.614;2023-04-19T01:36:48;6.60;99.90
52943;DHT22;38809;53.300;6.614;2023-04-19T01:39:14;6.50;99.90
52943;DHT22;38809;53.300;6.614;2023-04-19T01:41:40;6.60;99.90
52943;DHT22;38809;53.300;6.614;2023-04-19T01:44:05;6.40;99.90
52943;DHT22;38809;53.300;6.614;2023-04-19T01:46:31;7.10;99.90
52943;DHT22;38809;53.300;6.614;2023-04-19T01:48:57;6.60;99.90
52943;DHT22;38809;53.300;6.614;2023-04-19T01:51:22;6.70;99.90
52943;DHT22;38809;53.300;6.614;2023-04-19T01:53:48;6.40;99.90
52943;DHT22;38809;53.300;6.614;2023-04-19T01:56:18;6.30;99.90
52943;DHT22;38809;53.300;6.614;2023-04-19T01:58:44;6.50;99.90
52943;DHT22;38809;53.300;6.614;2023-04-19T02:01:09;6.60;99.90
52943;DHT22;38809;53.300;6.614;2023-04-19T02:03:39;6.70;99.90
52943;DHT22;38809;53.300;6.614;2023-04-19T02:06:09;6.10;99.90
52943;DHT22;38809;53.300;6.614;2023-04-19T02:08:34;6.20;99.90
52943;DHT22;38809;53.300;6.614;2023-04-19T02:11:05;6.00;99.90
52943;DHT22;38809;53.300;6.614;2023-04-19T02:13:32;6.10;99.90
52943;DHT22;38809;53.300;6.614;2023-04-19T02:15:57;6.00;99.90
52943;DHT22;38809;53.300;6.614;2023-04-19T02:18:23;6.00;99.90
52943;DHT22;38809;53.300;6.614;2023-04-19T02:20:50;5.90;99.90
52943;DHT22;38809;53.300;6.614;2023-04-19T02:23:16;6.10;99.90
52943;DHT22;38809;53.300;6.614;2023-04-19T02:25:42;6.00;99.90
52943;DHT22;38809;53.300;6.614;2023-04-19T02:28:07;5.60;99.90
52943;DHT22;38809;53.300;6.614;2023-04-19T02:30:33;6.20;99.90
52943;DHT22;38809;53.300;6.614;2023-04-19T02:33:00;5.90;99.90
52943;DHT22;38809;53.300;6.614;2023-04-19T02:35:26;5.70;99.90
52943;DHT22;38809;53.300;6.614;2023-04-19T02:37:52;5.40;99.90
52943;DHT22;38809;53.300;6.614;2023-04-19T02:40:17;5.70;99.90
52943;DHT22;38809;53.300;6.614;2023-04-19T02:42:43;5.40;99.90
52943;DHT22;38809;53.300;6.614;2023-04-19T02:45:08;6.00;99.90
52943;DHT22;38809;53.300;6.614;2023-04-19T02:47:34;5.30;99.90
52943;DHT22;38809;53.300;6.614;2023-04-19T02:50:00;5.30;99.90
52943;DHT22;38809;53.300;6.614;2023-04-19T02:52:26;5.60;99.90
52943;DHT22;38809;53.300;6.614;2023-04-19T02:54:52;5.60;99.90
52943;DHT22;38809;53.300;6.614;2023-04-19T02:57:17;5.80;99.90
52943;DHT22;38809;53.300;6.614;2023-04-19T02:59:43;5.40;99.90
52943;DHT22;38809;53.300;6.614;2023-04-19T03:02:09;5.30;99.90
52943;DHT22;38809;53.300;6.614;2023-04-19T03:04:34;5.20;99.90
52943;DHT22;38809;53.300;6.614;2023-04-19T03:07:01;5.20;99.90
52943;DHT22;38809;53.300;6.614;2023-04-19T03:09:26;5.20;99.90
52943;DHT22;38809;53.300;6.614;2023-04-19T03:11:52;5.20;99.90
52943;DHT22;38809;53.300;6.614;2023-04-19T03:14:17;5.00;99.90
52943;DHT22;38809;53.300;6.614;2023-04-19T03:16:43;4.90;99.90
52943;DHT22;38809;53.300;6.614;2023-04-19T03:19:09;5.40;99.90
52943;DHT22;38809;53.300;6.614;2023-04-19T03:21:34;5.40;99.90
52943;DHT22;38809;53.300;6.614;2023-04-19T03:24:00;5.20;99.90
52943;DHT22;38809;53.300;6.614;2023-04-19T03:26:26;5.00;99.90
52943;DHT22;38809;53.300;6.614;2023-04-19T03:28:52;5.20;99.90
52943;DHT22;38809;53.300;6.614;2023-04-19T03:31:17;4.70;99.90
52943;DHT22;38809;53.300;6.614;2023-04-19T03:33:43;4.70;99.90
52943;DHT22;38809;53.300;6.614;2023-04-19T03:36:08;5.40;99.90
52943;DHT22;38809;53.300;6.614;2023-04-19T03:38:35;4.70;99.90
52943;DHT22;38809;53.300;6.614;2023-04-19T03:41:00;4.70;99.90
52943;DHT22;38809;53.300;6.614;2023-04-19T03:43:26;4.60;99.90
52943;DHT22;38809;53.300;6.614;2023-04-19T03:45:52;4.50;99.90
52943;DHT22;38809;53.300;6.614;2023-04-19T03:48:17;4.70;99.90
52943;DHT22;38809;53.300;6.614;2023-04-19T03:50:43;4.50;99.90
52943;DHT22;38809;53.300;6.614;2023-04-19T03:53:09;4.60;99.90
52943;DHT22;38809;53.300;6.614;2023-04-19T03:55:34;4.80;99.90
52943;DHT22;38809;53.300;6.614;2023-04-19T03:58:00;4.70;99.90
52943;DHT22;38809;53.300;6.614;2023-04-19T04:00:25;4.70;99.90
52943;DHT22;38809;53.300;6.614;2023-04-19T04:02:52;4.60;99.90
52943;DHT22;38809;53.300;6.614;2023-04-19T04:05:17;4.50;99.90
52943;DHT22;38809;53.300;6.614;2023-04-19T04:07:43;4.60;99.90
52943;DHT22;38809;53.300;6.614;2023-04-19T04:10:09;5.30;99.90
52943;DHT22;38809;53.300;6.614;2023-04-19T04:12:35;4.50;99.90
52943;DHT22;38809;53.300;6.614;2023-04-19T04:15:01;4.50;99.90
52943;DHT22;38809;53.300;6.614;2023-04-19T04:17:26;4.40;99.90
52943;DHT22;38809;53.300;6.614;2023-04-19T04:19:52;4.40;99.90
52943;DHT22;38809;53.300;6.614;2023-04-19T04:22:17;4.50;99.90
52943;DHT22;38809;53.300;6.614;2023-04-19T04:24:43;4.60;99.90
52943;DHT22;38809;53.300;6.614;2023-04-19T04:27:10;4.30;99.90
52943;DHT22;38809;53.300;6.614;2023-04-19T04:29:36;4.50;99.90
52943;DHT22;38809;53.300;6.614;2023-04-19T04:32:04;4.30;99.90
52943;DHT22;38809;53.300;6.614;2023-04-19T04:34:33;4.80;99.90
52943;DHT22;38809;53.300;6.614;2023-04-19T04:36:58;4.40;99.90
52943;DHT22;38809;53.300;6.614;2023-04-19T04:39:24;4.50;99.90
52943;DHT22;38809;53.300;6.614;2023-04-19T04:41:50;5.10;99.90
52943;DHT22;38809;53.300;6.614;2023-04-19T04:44:17;5.00;99.90
52943;DHT22;38809;53.300;6.614;2023-04-19T04:46:45;5.20;99.90
52943;DHT22;38809;53.300;6.614;2023-04-19T04:49:11;5.10;99.90
52943;DHT22;38809;53.300;6.614;2023-04-19T04:51:37;5.20;99.90
52943;DHT22;38809;53.300;6.614;2023-04-19T04:54:02;5.00;99.90
52943;DHT22;38809;53.300;6.614;2023-04-19T04:56:29;5.00;99.90
52943;DHT22;38809;53.300;6.614;2023-04-19T04:58:55;4.90;99.90
52943;DHT22;38809;53.300;6.614;2023-04-19T05:01:22;5.10;99.90
52943;DHT22;38809;53.300;6.614;2023-04-19T05:03:49;5.40;99.90
52943;DHT22;38809;53.300;6.614;2023-04-19T05:06:15;5.60;99.90
52943;DHT22;38809;53.300;6.614;2023-04-19T05:08:40;6.10;99.90
52943;DHT22;38809;53.300;6.614;2023-04-19T05:11:06;6.10;99.90
52943;DHT22;38809;53.300;6.614;2023-04-19T05:13:32;6.30;99.90
52943;DHT22;38809;53.300;6.614;2023-04-19T05:15:58;6.60;99.90
52943;DHT22;38809;53.300;6.614;2023-04-19T05:18:24;6.60;99.90
52943;DHT22;38809;53.300;6.614;2023-04-19T05:20:49;6.90;99.90
52943;DHT22;38809;53.300;6.614;2023-04-19T05:23:15;7.00;99.90
52943;DHT22;38809;53.300;6.614;2023-04-19T05:25:41;6.50;99.90
52943;DHT22;38809;53.300;6.614;2023-04-19T05:28:07;6.60;99.90
52943;DHT22;38809;53.300;6.614;2023-04-19T05:30:32;6.30;99.90
52943;DHT22;38809;53.300;6.614;2023-04-19T05:32:59;6.30;99.90
52943;DHT22;38809;53.300;6.614;2023-04-19T05:35:24;6.60;99.90
52943;DHT22;38809;53.300;6.614;2023-04-19T05:37:50;7.10;99.90
52943;DHT22;38809;53.300;6.614;2023-04-19T05:40:16;6.90;99.90
52943;DHT22;38809;53.300;6.614;2023-04-19T05:42:42;6.70;99.90
52943;DHT22;38809;53.300;6.614;2023-04-19T05:45:08;6.70;99.90
52943;DHT22;38809;53.300;6.614;2023-04-19T05:47:34;6.70;99.90
52943;DHT22;38809;53.300;6.614;2023-04-19T05:50:00;6.50;99.90
52943;DHT22;38809;53.300;6.614;2023-04-19T05:52:25;6.30;99.90
52943;DHT22;38809;53.300;6.614;2023-04-19T05:54:51;6.90;99.90
52943;DHT22;38809;53.300;6.614;2023-04-19T05:57:17;6.90;99.90
52943;DHT22;38809;53.300;6.614;2023-04-19T05:59:42;6.60;99.90
52943;DHT22;38809;53.300;6.614;2023-04-19T06:02:08;6.80;99.90
52943;DHT22;38809;53.300;6.614;2023-04-19T06:04:34;7.00;99.90
52943;DHT22;38809;53.300;6.614;2023-04-19T06:07:00;6.90;99.90
52943;DHT22;38809;53.300;6.614;2023-04-19T06:09:26;6.90;99.90
52943;DHT22;38809;53.300;6.614;2023-04-19T06:11:51;6.90;99.90
52943;DHT22;38809;53.300;6.614;2023-04-19T06:14:19;7.00;99.90
52943;DHT22;38809;53.300;6.614;2023-04-19T06:16:45;7.30;99.90
52943;DHT22;38809;53.300;6.614;2023-04-19T06:19:11;7.50;99.90
52943;DHT22;38809;53.300;6.614;2023-04-19T06:21:36;7.40;99.90
52943;DHT22;38809;53.300;6.614;2023-04-19T06:24:02;7.20;99.90
52943;DHT22;38809;53.300;6.614;2023-04-19T06:26:28;7.10;99.90
52943;DHT22;38809;53.300;6.614;2023-04-19T06:28:54;7.10;99.90
52943;DHT22;38809;53.300;6.614;2023-04-19T06:31:20;7.20;99.90
52943;DHT22;38809;53.300;6.614;2023-04-19T06:33:45;7.50;99.90
52943;DHT22;38809;53.300;6.614;2023-04-19T06:36:11;7.50;99.90
52943;DHT22;38809;53.300;6.614;2023-04-19T06:38:37;7.40;99.90
52943;DHT22;38809;53.300;6.614;2023-04-19T06:41:03;7.40;99.90
52943;DHT22;38809;53.300;6.614;2023-04-19T06:43:29;7.70;99.90
52943;DHT22;38809;53.300;6.614;2023-04-19T06:46:02;7.70;99.90
52943;DHT22;38809;53.300;6.614;2023-04-19T06:48:29;7.80;99.90
52943;DHT22;38809;53.300;6.614;2023-04-19T06:50:55;7.90;99.90
52943;DHT22;38809;53.300;6.614;2023-04-19T06:53:21;8.20;99.90
52943;DHT22;38809;53.300;6.614;2023-04-19T06:55:47;8.10;99.90
52943;DHT22;38809;53.300;6.614;2023-04-19T06:58:13;8.40;99.90
52943;DHT22;38809;53.300;6.614;2023-04-19T07:00:39;8.50;99.90
52943;DHT22;38809;53.300;6.614;2023-04-19T07:03:05;8.40;99.90
52943;DHT22;38809;53.300;6.614;2023-04-19T07:05:31;8.50;99.90
52943;DHT22;38809;53.300;6.614;2023-04-19T07:07:57;8.60;99.90
52943;DHT22;38809;53.300;6.614;2023-04-19T07:10:23;8.60;99.90
52943;DHT22;38809;53.300;6.614;2023-04-19T07:12:49;8.60;99.90
52943;DHT22;38809;53.300;6.614;2023-04-19T07:15:15;8.60;99.90
52943;DHT22;38809;53.300;6.614;2023-04-19T07:17:41;8.50;99.90
52943;DHT22;38809;53.300;6.614;2023-04-19T07:20:07;8.70;99.90
52943;DHT22;38809;53.300;6.614;2023-04-19T07:22:33;8.70;99.90
52943;DHT22;38809;53.300;6.614;2023-04-19T07:24:59;8.70;99.90
52943;DHT22;38809;53.300;6.614;2023-04-19T07:27:25;8.80;99.90
52943;DHT22;38809;53.300;6.614;2023-04-19T07:29:51;8.80;99.90
52943;DHT22;38809;53.300;6.614;2023-04-19T07:32:17;8.80;99.90
52943;DHT22;38809;53.300;6.614;2023-04-19T07:34:43;8.90;99.90
52943;DHT22;38809;53.300;6.614;2023-04-19T07:37:11;8.80;99.90
52943;DHT22;38809;53.300;6.614;2023-04-19T07:39:39;9.10;99.90
52943;DHT22;38809;53.300;6.614;2023-04-19T07:42:05;9.30;99.90
52943;DHT22;38809;53.300;6.614;2023-04-19T07:44:31;9.30;99.90
52943;DHT22;38809;53.300;6.614;2023-04-19T07:46:56;9.30;99.90
52943;DHT22;38809;53.300;6.614;2023-04-19T07:49:22;9.50;99.90
52943;DHT22;38809;53.300;6.614;2023-04-19T07:51:48;9.60;99.90
52943;DHT22;38809;53.300;6.614;2023-04-19T07:54:14;9.70;99.90
52943;DHT22;38809;53.300;6.614;2023-04-19T07:56:41;9.50;99.90
52943;DHT22;38809;53.300;6.614;2023-04-19T07:59:06;9.80;99.90
52943;DHT22;38809;53.300;6.614;2023-04-19T08:01:32;9.90;99.90
52943;DHT22;38809;53.300;6.614;2023-04-19T08:03:58;9.90;99.90
52943;DHT22;38809;53.300;6.614;2023-04-19T08:06:24;10.10;99.90
52943;DHT22;38809;53.300;6.614;2023-04-19T08:08:51;10.10;99.90
52943;DHT22;38809;53.300;6.614;2023-04-19T08:11:17;10.00;99.90
52943;DHT22;38809;53.300;6.614;2023-04-19T08:13:42;10.10;99.90
52943;DHT22;38809;53.300;6.614;2023-04-19T08:16:08;10.00;99.90
52943;DHT22;38809;53.300;6.614;2023-04-19T08:18:34;10.10;99.90
52943;DHT22;38809;53.300;6.614;2023-04-19T08:21:00;10.00;99.90
52943;DHT22;38809;53.300;6.614;2023-04-19T08:23:26;10.20;99.90
52943;DHT22;38809;53.300;6.614;2023-04-19T08:25:51;10.90;99.90
52943;DHT22;38809;53.300;6.614;2023-04-19T08:28:17;10.40;99.90
52943;DHT22;38809;53.300;6.614;2023-04-19T08:30:43;10.30;99.90
52943;DHT22;38809;53.300;6.614;2023-04-19T08:33:09;10.40;99.90
52943;DHT22;38809;53.300;6.614;2023-04-19T08:35:36;10.40;99.90
52943;DHT22;38809;53.300;6.614;2023-04-19T08:38:02;10.60;99.90
52943;DHT22;38809;53.300;6.614;2023-04-19T08:40:32;10.60;99.90
52943;DHT22;38809;53.300;6.614;2023-04-19T08:42:58;10.50;99.90
52943;DHT22;38809;53.300;6.614;2023-04-19T08:45:27;10.80;99.90
52943;DHT22;38809;53.300;6.614;2023-04-19T08:47:53;10.80;99.90
52943;DHT22;38809;53.300;6.614;2023-04-19T08:50:20;11.00;99.90
52943;DHT22;38809;53.300;6.614;2023-04-19T08:52:47;10.90;99.90
52943;DHT22;38809;53.300;6.614;2023-04-19T08:55:14;10.90;99.90
52943;DHT22;38809;53.300;6.614;2023-04-19T08:57:40;11.10;99.90
52943;DHT22;38809;53.300;6.614;2023-04-19T09:00:06;11.30;99.90
52943;DHT22;38809;53.300;6.614;2023-04-19T09:05:11;11.70;99.90
52943;DHT22;38809;53.300;6.614;2023-04-19T09:07:37;11.60;99.90
52943;DHT22;38809;53.300;6.614;2023-04-19T09:10:09;11.60;99.90
52943;DHT22;38809;53.300;6.614;2023-04-19T09:12:35;11.50;99.90
52943;DHT22;38809;53.300;6.614;2023-04-19T09:15:03;11.70;99.90
52943;DHT22;38809;53.300;6.614;2023-04-19T09:17:29;11.70;99.90
52943;DHT22;38809;53.300;6.614;2023-04-19T09:19:56;11.80;99.90
52943;DHT22;38809;53.300;6.614;2023-04-19T09:22:22;11.90;99.90
52943;DHT22;38809;53.300;6.614;2023-04-19T09:24:48;12.00;99.90
52943;DHT22;38809;53.300;6.614;2023-04-19T09:27:26;11.70;99.90
52943;DHT22;38809;53.300;6.614;2023-04-19T09:29:57;12.40;99.90
52943;DHT22;38809;53.300;6.614;2023-04-19T09:32:24;12.30;99.90
52943;DHT22;38809;53.300;6.614;2023-04-19T09:34:52;12.30;99.90
52943;DHT22;38809;53.300;6.614;2023-04-19T09:37:18;12.40;99.90
52943;DHT22;38809;53.300;6.614;2023-04-19T09:39:44;12.40;99.90
52943;DHT22;38809;53.300;6.614;2023-04-19T09:42:10;12.20;99.90
52943;DHT22;38809;53.300;6.614;2023-04-19T09:44:36;12.30;99.90
52943;DHT22;38809;53.300;6.614;2023-04-19T09:47:01;12.20;99.90
52943;DHT22;38809;53.300;6.614;2023-04-19T09:49:27;12.20;99.90
52943;DHT22;38809;53.300;6.614;2023-04-19T09:51:54;12.50;99.90
52943;DHT22;38809;53.300;6.614;2023-04-19T09:54:22;12.40;99.90
52943;DHT22;38809;53.300;6.614;2023-04-19T09:56:48;12.60;99.90
52943;DHT22;38809;53.300;6.614;2023-04-19T09:59:14;12.30;99.90
52943;DHT22;38809;53.300;6.614;2023-04-19T10:01:47;12.40;99.90
52943;DHT22;38809;53.300;6.614;2023-04-19T10:04:14;12.40;99.90
52943;DHT22;38809;53.300;6.614;2023-04-19T10:06:53;12.80;99.90
52943;DHT22;38809;53.300;6.614;2023-04-19T10:09:20;12.80;99.90
52943;DHT22;38809;53.300;6.614;2023-04-19T10:11:48;12.70;99.90
52943;DHT22;38809;53.300;6.614;2023-04-19T10:14:15;12.60;99.90
52943;DHT22;38809;53.300;6.614;2023-04-19T10:16:42;12.40;99.90
52943;DHT22;38809;53.300;6.614;2023-04-19T10:19:10;12.70;99.90
52943;DHT22;38809;53.300;6.614;2023-04-19T10:21:37;12.70;99.90
52943;DHT22;38809;53.300;6.614;2023-04-19T10:24:05;12.60;99.90
52943;DHT22;38809;53.300;6.614;2023-04-19T10:30:00;12.70;99.90
52943;DHT22;38809;53.300;6.614;2023-04-19T10:32:28;12.70;99.90
52943;DHT22;38809;53.300;6.614;2023-04-19T10:34:54;12.60;99.90
52943;DHT22;38809;53.300;6.614;2023-04-19T10:37:24;12.60;99.90
52943;DHT22;38809;53.300;6.614;2023-04-19T10:39:50;12.60;99.90
52943;DHT22;38809;53.300;6.614;2023-04-19T10:42:17;12.70;99.90
52943;DHT22;38809;53.300;6.614;2023-04-19T10:45:44;12.90;99.90
52943;DHT22;38809;53.300;6.614;2023-04-19T10:47:51;12.80;99.90
52943;DHT22;38809;53.300;6.614;2023-04-19T10:50:17;13.00;99.90
52943;DHT22;38809;53.300;6.614;2023-04-19T10:52:43;12.80;99.90
52943;DHT22;38809;53.300;6.614;2023-04-19T10:55:08;12.90;99.90
52943;DHT22;38809;53.300;6.614;2023-04-19T11:00:27;13.20;99.90
52943;DHT22;38809;53.300;6.614;2023-04-19T11:02:56;12.80;99.90
52943;DHT22;38809;53.300;6.614;2023-04-19T11:05:22;12.80;99.90
52943;DHT22;38809;53.300;6.614;2023-04-19T11:07:47;12.70;99.90
52943;DHT22;38809;53.300;6.614;2023-04-19T11:10:27;12.60;99.90
52943;DHT22;38809;53.300;6.614;2023-04-19T11:12:53;12.80;99.90
52943;DHT22;38809;53.300;6.614;2023-04-19T11:15:21;12.90;99.90
52943;DHT22;38809;53.300;6.614;2023-04-19T11:17:50;13.10;99.90
52943;DHT22;38809;53.300;6.614;2023-04-19T11:20:17;13.40;99.90
52943;DHT22;38809;53.300;6.614;2023-04-19T11:22:44;13.10;99.90
52943;DHT22;38809;53.300;6.614;2023-04-19T11:27:45;13.00;99.90
52943;DHT22;38809;53.300;6.614;2023-04-19T11:30:15;12.90;99.90
52943;DHT22;38809;53.300;6.614;2023-04-19T11:32:52;13.00;99.90
52943;DHT22;38809;53.300;6.614;2023-04-19T11:35:22;13.20;99.90
52943;DHT22;38809;53.300;6.614;2023-04-19T11:37:49;13.00;99.90
52943;DHT22;38809;53.300;6.614;2023-04-19T11:40:15;12.80;99.90
52943;DHT22;38809;53.300;6.614;2023-04-19T11:42:41;12.90;99.90
52943;DHT22;38809;53.300;6.614;2023-04-19T11:45:09;12.50;99.90
52943;DHT22;38809;53.300;6.614;2023-04-19T11:47:45;12.90;99.90
52943;DHT22;38809;53.300;6.614;2023-04-19T11:50:40;13.00;99.90
52943;DHT22;38809;53.300;6.614;2023-04-19T11:53:16;13.20;99.90
52943;DHT22;38809;53.300;6.614;2023-04-19T11:55:47;13.00;99.90
52943;DHT22;38809;53.300;6.614;2023-04-19T12:01:10;13.20;99.90
52943;DHT22;38809;53.300;6.614;2023-04-19T12:06:11;12.90;99.90
52943;DHT22;38809;53.300;6.614;2023-04-19T12:43:09;12.80;99.90
52943;DHT22;38809;53.300;6.614;2023-04-19T12:45:34;12.60;99.90
52943;DHT22;38809;53.300;6.614;2023-04-19T12:48:00;12.90;99.90
52943;DHT22;38809;53.300;6.614;2023-04-19T12:50:26;12.40;99.90
52943;DHT22;38809;53.300;6.614;2023-04-19T12:52:51;12.50;99.90
52943;DHT22;38809;53.300;6.614;2023-04-19T12:55:18;12.80;99.90
52943;DHT22;38809;53.300;6.614;2023-04-19T12:57:44;12.90;99.90
52943;DHT22;38809;53.300;6.614;2023-04-19T13:00:10;12.50;99.90
52943;DHT22;38809;53.300;6.614;2023-04-19T13:02:36;12.80;99.90
52943;DHT22;38809;53.300;6.614;2023-04-19T13:05:02;12.30;99.90
52943;DHT22;38809;53.300;6.614;2023-04-19T13:07:30;12.50;99.90
52943;DHT22;38809;53.300;6.614;2023-04-19T13:09:56;12.80;99.90
52943;DHT22;38809;53.300;6.614;2023-04-19T13:12:21;12.50;99.90
52943;DHT22;38809;53.300;6.614;2023-04-19T13:14:48;12.70;99.90
52943;DHT22;38809;53.300;6.614;2023-04-19T13:17:16;12.70;99.90
52943;DHT22;38809;53.300;6.614;2023-04-19T13:19:41;12.60;99.90
52943;DHT22;38809;53.300;6.614;2023-04-19T13:22:07;12.60;99.90
52943;DHT22;38809;53.300;6.614;2023-04-19T13:24:32;12.50;99.90
52943;DHT22;38809;53.300;6.614;2023-04-19T13:26:58;12.60;99.90
52943;DHT22;38809;53.300;6.614;2023-04-19T13:29:24;12.70;99.90
52943;DHT22;38809;53.300;6.614;2023-04-19T13:31:49;12.40;99.90
52943;DHT22;38809;53.300;6.614;2023-04-19T13:34:15;12.50;99.90
52943;DHT22;38809;53.300;6.614;2023-04-19T13:36:41;12.60;99.90
52943;DHT22;38809;53.300;6.614;2023-04-19T13:39:06;12.60;99.90
52943;DHT22;38809;53.300;6.614;2023-04-19T13:41:32;12.50;99.90
52943;DHT22;38809;53.300;6.614;2023-04-19T13:43:58;12.50;99.90
52943;DHT22;38809;53.300;6.614;2023-04-19T13:46:23;12.50;99.90
52943;DHT22;38809;53.300;6.614;2023-04-19T13:48:49;12.50;99.90
52943;DHT22;38809;53.300;6.614;2023-04-19T13:51:14;12.50;99.90
52943;DHT22;38809;53.300;6.614;2023-04-19T13:53:40;12.60;99.90
52943;DHT22;38809;53.300;6.614;2023-04-19T13:56:06;12.50;99.90
52943;DHT22;38809;53.300;6.614;2023-04-19T13:58:35;12.40;99.90
52943;DHT22;38809;53.300;6.614;2023-04-19T14:01:00;12.30;99.90
52943;DHT22;38809;53.300;6.614;2023-04-19T14:03:26;12.30;99.90
52943;DHT22;38809;53.300;6.614;2023-04-19T14:05:52;12.30;99.90
52943;DHT22;38809;53.300;6.614;2023-04-19T14:08:18;12.20;99.90
52943;DHT22;38809;53.300;6.614;2023-04-19T14:10:43;12.40;99.90
52943;DHT22;38809;53.300;6.614;2023-04-19T14:13:09;12.30;99.90
52943;DHT22;38809;53.300;6.614;2023-04-19T14:15:35;12.20;99.90
52943;DHT22;38809;53.300;6.614;2023-04-19T14:18:01;12.20;99.90
52943;DHT22;38809;53.300;6.614;2023-04-19T14:20:27;12.30;99.90
52943;DHT22;38809;53.300;6.614;2023-04-19T14:22:52;12.40;99.90
52943;DHT22;38809;53.300;6.614;2023-04-19T14:25:20;12.50;99.90
52943;DHT22;38809;53.300;6.614;2023-04-19T14:27:46;12.30;99.90
52943;DHT22;38809;53.300;6.614;2023-04-19T14:30:12;12.30;99.90
52943;DHT22;38809;53.300;6.614;2023-04-19T14:32:38;12.30;99.90
52943;DHT22;38809;53.300;6.614;2023-04-19T14:35:04;12.20;99.90
52943;DHT22;38809;53.300;6.614;2023-04-19T14:37:29;12.10;99.90
52943;DHT22;38809;53.300;6.614;2023-04-19T14:39:55;12.10;99.90
52943;DHT22;38809;53.300;6.614;2023-04-19T14:42:21;12.10;99.90
52943;DHT22;38809;53.300;6.614;2023-04-19T14:44:48;12.20;99.90
52943;DHT22;38809;53.300;6.614;2023-04-19T14:47:14;12.00;99.90
52943;DHT22;38809;53.300;6.614;2023-04-19T14:49:40;12.00;99.90
52943;DHT22;38809;53.300;6.614;2023-04-19T14:52:06;12.30;99.90
52943;DHT22;38809;53.300;6.614;2023-04-19T14:54:32;12.00;99.90
52943;DHT22;38809;53.300;6.614;2023-04-19T14:56:58;12.20;99.90
52943;DHT22;38809;53.300;6.614;2023-04-19T14:59:23;12.20;99.90
52943;DHT22;38809;53.300;6.614;2023-04-19T15:01:49;12.00;99.90
52943;DHT22;38809;53.300;6.614;2023-04-19T15:04:15;12.10;99.90
52943;DHT22;38809;53.300;6.614;2023-04-19T15:06:40;12.10;99.90
52943;DHT22;38809;53.300;6.614;2023-04-19T15:09:06;12.00;99.90
52943;DHT22;38809;53.300;6.614;2023-04-19T15:11:32;11.90;99.90
52943;DHT22;38809;53.300;6.614;2023-04-19T15:13:57;12.10;99.90
52943;DHT22;38809;53.300;6.614;2023-04-19T15:16:23;12.10;99.90
52943;DHT22;38809;53.300;6.614;2023-04-19T15:18:49;12.00;99.90
52943;DHT22;38809;53.300;6.614;2023-04-19T15:21:17;12.10;99.90
52943;DHT22;38809;53.300;6.614;2023-04-19T15:23:43;12.00;99.90
52943;DHT22;38809;53.300;6.614;2023-04-19T15:26:08;12.10;99.90
52943;DHT22;38809;53.300;6.614;2023-04-19T15:28:34;12.10;99.90
52943;DHT22;38809;53.300;6.614;2023-04-19T15:31:03;12.10;99.90
52943;DHT22;38809;53.300;6.614;2023-04-19T15:33:29;12.20;99.90
52943;DHT22;38809;53.300;6.614;2023-04-19T15:35:55;11.90;99.90
52943;DHT22;38809;53.300;6.614;2023-04-19T15:38:21;11.80;99.90
52943;DHT22;38809;53.300;6.614;2023-04-19T15:40:47;12.00;99.90
52943;DHT22;38809;53.300;6.614;2023-04-19T15:43:13;12.00;99.90
52943;DHT22;38809;53.300;6.614;2023-04-19T15:45:39;12.00;99.90
52943;DHT22;38809;53.300;6.614;2023-04-19T15:48:05;12.00;99.90
52943;DHT22;38809;53.300;6.614;2023-04-19T15:50:32;12.00;99.90
52943;DHT22;38809;53.300;6.614;2023-04-19T15:53:00;11.90;99.90
52943;DHT22;38809;53.300;6.614;2023-04-19T15:55:25;11.90;99.90
52943;DHT22;38809;53.300;6.614;2023-04-19T15:57:51;11.80;99.90
52943;DHT22;38809;53.300;6.614;2023-04-19T16:00:17;11.90;99.90
52943;DHT22;38809;53.300;6.614;2023-04-19T16:02:43;11.80;99.90
52943;DHT22;38809;53.300;6.614;2023-04-19T16:05:09;11.80;99.90
52943;DHT22;38809;53.300;6.614;2023-04-19T16:07:35;11.60;99.90
52943;DHT22;38809;53.300;6.614;2023-04-19T16:10:00;11.80;99.90
52943;DHT22;38809;53.300;6.614;2023-04-19T16:12:28;11.60;99.90
52943;DHT22;38809;53.300;6.614;2023-04-19T16:14:53;11.60;99.90
52943;DHT22;38809;53.300;6.614;2023-04-19T16:17:19;11.70;99.90
52943;DHT22;38809;53.300;6.614;2023-04-19T16:19:45;11.70;99.90
52943;DHT22;38809;53.300;6.614;2023-04-19T16:22:11;11.80;99.90
52943;DHT22;38809;53.300;6.614;2023-04-19T16:24:37;11.80;99.90
52943;DHT22;38809;53.300;6.614;2023-04-19T16:27:02;11.80;99.90